TimePST,TemperatureF,Dew PointF,Humidity,Sea Level PressureIn,VisibilityMPH,Wind Direction,Wind SpeedMPH,Gust SpeedMPH,PrecipitationIn,Events,Conditions,WindDirDegrees,DateUTC
1:00 AM,34,28,71,30.42,9,NE,2.3,,,,,40,2013-02-14 09:00:00
1:00 AM,33.8,28.4,81,30.42,9.0,Calm,Calm,-,N/A,,Clear,0,2013-02-14 09:00:00
2:00 AM,33.8,28.4,81,30.42,9.0,North,3.5,-,N/A,,Clear,360,2013-02-14 10:00:00
3:00 AM,33.8,28.4,81,30.43,9.0,North,2.3,-,N/A,,Clear,360,2013-02-14 11:00:00
4:00 AM,34,28,70,30.44,9,North,3.5,,,,,10,2013-02-14 12:00:00
4:00 AM,33.8,28.4,81,30.44,9.0,North,4.6,-,N/A,,Clear,10,2013-02-14 12:00:00
5:00 AM,35.6,28.4,75,30.44,9.0,North,3.5,-,N/A,,Clear,350,2013-02-14 13:00:00
6:00 AM,33.8,26.6,75,30.45,9.0,NNW,3.5,-,N/A,,Clear,340,2013-02-14 14:00:00
7:00 AM,34,23,53,30.47,9,North,3.5,,,,,0,2013-02-14 15:00:00
7:00 AM,33.8,23.0,65,30.47,9.0,North,4.6,-,N/A,,Partly Cloudy,350,2013-02-14 15:00:00
7:25 AM,33.8,21.2,60,30.45,9.0,Calm,Calm,-,N/A,,Mostly Cloudy,0,2013-02-14 15:25:00
8:00 AM,35.6,23.0,60,30.50,9.0,NNW,2.3,-,N/A,,Overcast,330,2013-02-14 16:00:00
9:00 AM,35.6,26.6,70,30.52,9.0,Calm,Calm,-,N/A,,Overcast,0,2013-02-14 17:00:00
10:00 AM,37,26,54,30.52,9,North,2.3,,,,,0,2013-02-14 18:00:00
10:00 AM,37.4,26.6,65,30.52,9.0,North,2.3,-,N/A,,Unknown,10,2013-02-14 18:00:00
11:00 AM,39.2,28.4,65,30.52,9.0,NNW,4.6,-,N/A,,Overcast,340,2013-02-14 19:00:00
11:41 AM,41.0,30.2,65,30.48,9.0,North,4.6,-,N/A,,Scattered Clouds,360,2013-02-14 19:41:00
12:00 PM,42.8,30.2,61,30.50,9.0,North,4.6,-,N/A,,Partly Cloudy,350,2013-02-14 20:00:00
1:00 PM,45,31,46,30.49,9,North,5.8,,,,,0,2013-02-14 21:00:00
1:00 PM,44.6,32.0,61,30.49,9.0,North,5.8,-,N/A,,Clear,360,2013-02-14 21:00:00
2:00 PM,46.4,30.2,53,30.50,9.0,NW,2.3,-,N/A,,Partly Cloudy,320,2013-02-14 22:00:00
3:00 PM,46.4,33.8,62,30.48,9.0,South,18.4,28.8,N/A,,Partly Cloudy,180,2013-02-14 23:00:00
4:00 PM,46,33,50,30.47,9,South,20.7,,,,,180,2013-02-15 00:00:00
4:00 PM,46.4,33.8,62,30.47,9.0,South,16.1,32.2,N/A,,Partly Cloudy,180,2013-02-15 00:00:00
5:00 PM,46.4,33.8,62,30.48,9.0,South,13.8,23.0,N/A,,Partly Cloudy,190,2013-02-15 01:00:00
6:00 PM,44.6,33.8,66,30.48,9.0,South,13.8,20.7,N/A,,Clear,180,2013-02-15 02:00:00
7:00 PM,42,33,60,30.52,9,Calm,Calm,,,,,,2013-02-15 03:00:00
7:00 PM,42.8,32.0,66,30.52,9.0,NE,2.3,-,N/A,,Clear,40,2013-02-15 03:00:00
8:00 PM,41.0,32.0,70,30.53,9.0,Calm,Calm,-,N/A,,Clear,0,2013-02-15 04:00:00
9:00 PM,41.0,32.0,70,30.53,9.0,North,3.5,-,N/A,,Partly Cloudy,360,2013-02-15 05:00:00
10:00 PM,42,34,66,30.54,9,South,5.8,,,,,170,2013-02-15 06:00:00
10:00 PM,42.8,33.8,70,30.54,9.0,South,4.6,-,N/A,,Clear,180,2013-02-15 06:00:00
11:00 PM,42.8,33.8,70,30.54,9.0,South,5.8,-,N/A,,Clear,180,2013-02-15 07:00:00